createdAt,value
2023-03-06T00:01:41.972Z,60.38
2023-03-06T00:04:47.427Z,59.92
2023-03-06T00:07:52.971Z,59.10
2023-03-06T00:10:59.717Z,60.92
2023-03-06T00:14:05.492Z,57.33
2023-03-06T00:17:11.222Z,60.72
2023-03-06T00:20:17.402Z,69.72
2023-03-06T00:23:23.321Z,66.97
2023-03-06T00:26:29.093Z,66.32
2023-03-06T00:29:34.698Z,61.88
2023-03-06T00:32:40.190Z,64.97
2023-03-06T00:35:46.182Z,69.55
2023-03-06T00:38:51.742Z,62.03
2023-03-06T00:41:57.500Z,58.20
2023-03-06T00:45:04.198Z,64.20
2023-03-06T00:48:09.599Z,67.68
2023-03-06T00:51:15.115Z,58.75
2023-03-06T00:54:22.501Z,60.20
2023-03-06T00:57:28.186Z,66.03
2023-03-06T01:00:33.790Z,67.22
2023-03-06T01:03:39.452Z,65.68
2023-03-06T01:06:44.549Z,69.25
2023-03-06T01:09:50.226Z,68.60
2023-03-06T01:12:56.105Z,65.10
2023-03-06T01:16:09.730Z,63.15
2023-03-06T01:19:15.375Z,61.95
2023-03-06T01:22:20.698Z,69.10
2023-03-06T01:25:26.461Z,63.45
2023-03-06T01:28:34.294Z,71.10
2023-03-06T01:31:41.228Z,69.65
2023-03-06T01:34:46.978Z,65.13
2023-03-06T01:37:52.843Z,67.60
2023-03-06T01:40:58.934Z,71.05
2023-03-06T01:44:05.770Z,71.20
2023-03-06T01:47:11.454Z,56.45
2023-03-06T01:50:17.242Z,61.90
2023-03-06T01:53:23.295Z,64.72
2023-03-06T01:56:29.116Z,64.53
2023-03-06T01:59:38.566Z,67.95
2023-03-06T02:03:18.840Z,63.90
2023-03-06T02:06:24.656Z,58.13
2023-03-06T02:09:31.729Z,66.85
2023-03-06T02:12:37.865Z,62.03
2023-03-06T02:15:43.475Z,62.63
2023-03-06T02:18:50.945Z,67.63
2023-03-06T02:21:56.586Z,60.25
2023-03-06T02:25:13.901Z,64.45
2023-03-06T02:28:22.355Z,63.28
2023-03-06T02:31:32.478Z,66.10
2023-03-06T02:34:46.401Z,62.97
2023-03-06T02:37:52.749Z,63.50
2023-03-06T02:40:59.211Z,64.28
2023-03-06T02:44:08.442Z,68.72
2023-03-06T02:47:13.938Z,69.00
2023-03-06T02:50:20.138Z,75.95
2023-03-06T02:53:27.820Z,69.75
2023-03-06T02:56:33.620Z,70.82
2023-03-06T02:59:38.925Z,71.97
2023-03-06T03:02:45.957Z,73.93
2023-03-06T03:05:52.089Z,69.90
2023-03-06T03:09:04.896Z,67.45
2023-03-06T03:12:10.789Z,65.80
2023-03-06T03:15:17.815Z,66.93
2023-03-06T03:18:23.639Z,58.63
2023-03-06T03:21:29.596Z,59.92
2023-03-06T03:24:34.839Z,59.38
2023-03-06T03:27:40.827Z,69.65
2023-03-06T03:30:46.592Z,64.90
2023-03-06T03:33:51.987Z,58.63
2023-03-06T03:36:59.273Z,62.35
2023-03-06T03:40:07.439Z,65.43
2023-03-06T03:43:12.839Z,65.55
2023-03-06T03:46:18.446Z,65.20
2023-03-06T03:49:24.947Z,65.75
2023-03-06T03:52:31.758Z,62.10
2023-03-06T03:55:37.366Z,68.35
2023-03-06T03:58:43.208Z,64.00
2023-03-06T04:01:48.561Z,73.40
2023-03-06T04:04:54.066Z,70.85
2023-03-06T04:07:59.363Z,82.82
2023-03-06T04:11:05.295Z,69.55
2023-03-06T04:14:11.151Z,79.10
2023-03-06T04:17:16.481Z,82.47
2023-03-06T04:20:21.961Z,75.85
2023-03-06T04:23:28.624Z,75.18
2023-03-06T04:26:34.242Z,76.40
2023-03-06T04:29:39.767Z,75.43
2023-03-06T04:32:45.430Z,70.75
2023-03-06T04:35:50.851Z,74.45
2023-03-06T04:39:02.142Z,74.03
2023-03-06T04:42:07.469Z,75.35
2023-03-06T04:45:13.528Z,72.43
2023-03-06T04:48:18.951Z,82.68
2023-03-06T04:51:24.388Z,75.55
2023-03-06T04:54:29.822Z,78.78
2023-03-06T04:57:37.373Z,79.35
2023-03-06T05:00:43.077Z,76.82
2023-03-06T05:03:50.089Z,81.90
2023-03-06T05:06:55.810Z,76.15
2023-03-06T05:10:01.273Z,75.75
2023-03-06T05:13:06.416Z,77.57
2023-03-06T05:16:11.556Z,85.95
2023-03-06T05:19:16.952Z,86.97
2023-03-06T05:22:22.713Z,78.50
2023-03-06T05:25:27.883Z,81.50
2023-03-06T05:28:33.714Z,91.00
2023-03-06T05:31:38.951Z,89.55
2023-03-06T05:34:44.129Z,89.53
2023-03-06T05:37:50.231Z,87.22
2023-03-06T05:40:56.338Z,85.03
2023-03-06T05:44:01.474Z,100.25
2023-03-06T05:47:06.687Z,95.43
2023-03-06T05:50:14.203Z,98.25
2023-03-06T05:53:19.668Z,90.80
2023-03-06T05:56:24.797Z,93.03
2023-03-06T05:59:30.197Z,95.07
2023-03-06T06:02:35.639Z,95.15
2023-03-06T06:05:41.371Z,101.47
2023-03-06T06:08:46.661Z,104.63
2023-03-06T06:11:53.750Z,102.20
2023-03-06T06:14:59.052Z,97.15
2023-03-06T06:18:04.508Z,101.38
2023-03-06T06:21:12.666Z,94.75
2023-03-06T06:24:20.818Z,96.80
2023-03-06T06:27:26.321Z,105.45
2023-03-06T06:30:33.236Z,92.93
2023-03-06T06:33:39.877Z,98.20
2023-03-06T06:36:45.072Z,95.70
2023-03-06T06:39:51.091Z,99.22
2023-03-06T06:42:56.279Z,96.85
2023-03-06T06:46:32.112Z,93.95
2023-03-06T06:49:28.443Z,95.38
2023-03-06T06:52:33.860Z,98.60
2023-03-06T06:55:39.116Z,98.90
2023-03-06T06:58:44.804Z,86.35
2023-03-06T07:01:51.664Z,91.68
2023-03-06T07:05:04.175Z,95.85
2023-03-06T07:08:10.644Z,93.85
2023-03-06T07:11:18.292Z,99.70
2023-03-06T07:14:23.771Z,96.22
2023-03-06T07:17:29.405Z,97.95
2023-03-06T07:20:34.754Z,96.25
2023-03-06T07:23:40.699Z,96.07
2023-03-06T07:26:48.996Z,94.45
2023-03-06T07:29:54.393Z,91.05
2023-03-06T07:33:00.252Z,88.55
2023-03-06T07:36:12.795Z,94.55
2023-03-06T07:39:19.066Z,93.93
2023-03-06T07:42:24.711Z,95.70
2023-03-06T07:45:38.498Z,93.45
2023-03-06T07:48:44.850Z,90.85
2023-03-06T07:51:50.322Z,96.47
2023-03-06T07:54:55.612Z,89.25
2023-03-06T07:58:00.966Z,91.45
2023-03-06T08:01:09.228Z,101.55
2023-03-06T08:04:14.577Z,100.93
2023-03-06T08:07:20.523Z,100.10
2023-03-06T08:10:25.843Z,107.93
2023-03-06T08:13:31.656Z,96.72
2023-03-06T08:16:37.080Z,110.90
2023-03-06T08:19:42.514Z,95.13
2023-03-06T08:22:49.513Z,95.28
2023-03-06T08:26:04.719Z,98.35
2023-03-06T08:29:11.164Z,100.60
2023-03-06T08:32:16.339Z,100.13
2023-03-06T08:35:22.057Z,92.32
2023-03-06T08:38:27.484Z,103.60
2023-03-06T08:41:33.898Z,97.93
2023-03-06T08:44:39.549Z,99.90
2023-03-06T08:47:45.135Z,88.60
2023-03-06T08:50:51.089Z,105.05
2023-03-06T08:53:58.301Z,93.82
2023-03-06T08:57:03.733Z,96.38
2023-03-06T09:00:11.151Z,88.72
2023-03-06T09:03:16.352Z,89.80
2023-03-06T09:06:22.141Z,86.15
2023-03-06T09:09:27.386Z,80.10
2023-03-06T09:12:47.262Z,83.97
2023-03-06T09:15:55.500Z,76.55
2023-03-06T09:19:01.395Z,68.70
2023-03-06T09:22:06.908Z,72.90
2023-03-06T09:25:14.233Z,69.53
2023-03-06T09:28:20.018Z,68.68
2023-03-06T09:31:25.563Z,71.07
2023-03-06T09:34:31.062Z,68.35
2023-03-06T09:37:36.845Z,59.53
2023-03-06T09:44:26.400Z,61.42
2023-03-06T09:48:00.233Z,58.47
2023-03-06T09:51:16.756Z,62.45
2023-03-06T09:54:34.771Z,58.97
2023-03-06T09:57:59.139Z,63.78
2023-03-06T10:01:12.413Z,64.80
2023-03-06T10:04:40.617Z,69.85
2023-03-06T10:07:53.675Z,65.93
2023-03-06T10:11:04.002Z,60.85
2023-03-06T10:14:35.094Z,64.13
2023-03-06T10:17:42.725Z,69.47
2023-03-06T10:21:00.938Z,68.25
2023-03-06T10:24:27.588Z,66.00
2023-03-06T10:27:48.952Z,61.03
2023-03-06T10:31:09.308Z,61.95
2023-03-06T10:34:44.709Z,57.22
2023-03-06T10:37:50.205Z,64.65
2023-03-06T10:41:13.261Z,50.83
2023-03-06T10:44:24.026Z,49.03
2023-03-06T10:47:35.556Z,53.75
2023-03-06T10:50:41.250Z,51.03
2023-03-06T10:54:14.495Z,53.15
2023-03-06T10:57:40.808Z,55.85
2023-03-06T11:00:46.379Z,50.22
2023-03-06T11:03:53.371Z,50.22
2023-03-06T11:07:19.559Z,53.13
2023-03-06T11:10:25.828Z,56.90
2023-03-06T11:13:36.005Z,54.17
2023-03-06T11:16:53.202Z,56.15
2023-03-06T11:20:48.564Z,47.67
2023-03-06T11:24:02.093Z,58.78
2023-03-06T11:27:35.007Z,50.22
2023-03-06T11:30:46.546Z,60.20
2023-03-06T11:37:32.606Z,55.38
2023-03-06T11:41:01.444Z,46.67
2023-03-06T11:44:28.379Z,44.55
2023-03-06T11:48:01.950Z,44.70
2023-03-06T11:51:17.561Z,60.60
2023-03-06T11:54:23.407Z,52.08
2023-03-06T11:58:12.095Z,45.03
2023-03-06T12:01:44.548Z,47.63
2023-03-06T12:05:21.471Z,51.55
2023-03-06T12:08:45.734Z,50.22
2023-03-06T12:11:56.440Z,46.50
2023-03-06T12:15:23.053Z,44.67
2023-03-06T12:18:56.640Z,52.88
2023-03-06T12:22:39.260Z,39.05
2023-03-06T12:26:09.329Z,33.65
2023-03-06T12:29:42.257Z,36.58
2023-03-06T12:33:08.793Z,34.92
2023-03-06T12:36:52.848Z,35.75
2023-03-06T12:40:39.579Z,30.00
2023-03-06T12:43:44.890Z,36.67
2023-03-06T12:46:57.647Z,31.48
2023-03-06T12:50:18.549Z,31.33
2023-03-06T12:53:29.867Z,36.80
2023-03-06T12:56:35.682Z,31.08
2023-03-06T12:59:49.614Z,32.33
2023-03-06T13:03:13.297Z,34.55
2023-03-06T13:06:55.474Z,33.10
2023-03-06T13:13:34.947Z,29.67
2023-03-06T13:16:40.312Z,34.67
2023-03-06T13:19:45.547Z,35.90
2023-03-06T13:22:50.545Z,34.60
2023-03-06T13:26:02.303Z,38.50
2023-03-06T13:29:38.553Z,33.50
2023-03-06T13:32:44.016Z,31.05
2023-03-06T13:35:54.145Z,28.55
2023-03-06T13:39:00.585Z,27.85
2023-03-06T13:42:07.445Z,30.42
2023-03-06T13:45:19.743Z,30.95
2023-03-06T13:48:45.457Z,32.55
2023-03-06T13:51:52.011Z,32.00
2023-03-06T13:55:09.463Z,34.22
2023-03-06T13:58:24.082Z,30.20
2023-03-06T14:01:41.826Z,29.27
2023-03-06T14:04:59.239Z,35.78
2023-03-06T14:08:15.529Z,36.17
2023-03-06T14:11:21.798Z,36.65
2023-03-06T14:14:39.935Z,35.10
2023-03-06T14:17:56.589Z,32.17
2023-03-06T14:21:05.819Z,29.90
2023-03-06T14:24:16.935Z,29.55
2023-03-06T14:27:47.356Z,30.33
2023-03-06T14:30:54.403Z,31.48
2023-03-06T14:34:07.284Z,35.35
2023-03-06T14:37:22.799Z,31.30
2023-03-06T14:40:40.938Z,36.78
2023-03-06T14:43:46.134Z,32.17
2023-03-06T14:47:32.130Z,33.58
2023-03-06T14:50:40.922Z,28.30
2023-03-06T14:53:49.604Z,34.08
2023-03-06T14:57:01.707Z,28.30
2023-03-06T15:00:08.307Z,29.67
2023-03-06T15:03:28.463Z,36.33
2023-03-06T15:06:38.494Z,32.25
2023-03-06T15:09:48.526Z,24.63
2023-03-06T15:12:54.383Z,27.65
2023-03-06T15:16:07.304Z,29.02
2023-03-06T15:19:22.040Z,27.42
2023-03-06T15:22:42.142Z,24.13
2023-03-06T15:26:43.593Z,29.15
2023-03-06T15:29:49.095Z,28.65
2023-03-06T15:33:27.087Z,26.17
2023-03-06T15:36:37.415Z,28.80
2023-03-06T15:39:43.487Z,30.05
2023-03-06T15:42:52.273Z,33.33
2023-03-06T15:46:01.077Z,29.10
2023-03-06T15:49:14.720Z,31.90
2023-03-06T15:52:21.005Z,24.88
2023-03-06T15:55:26.487Z,32.03
2023-03-06T15:58:34.184Z,31.20
2023-03-06T16:01:39.689Z,29.08
2023-03-06T16:04:46.186Z,35.47
2023-03-06T16:07:52.094Z,24.90
2023-03-06T16:10:58.462Z,31.55
2023-03-06T16:14:04.353Z,30.90
2023-03-06T16:17:12.430Z,28.08
2023-03-06T16:20:21.500Z,35.83
2023-03-06T16:23:27.018Z,26.08
2023-03-06T16:26:35.403Z,30.90
2023-03-06T16:29:40.659Z,33.30
2023-03-06T16:32:46.777Z,33.40
2023-03-06T16:35:52.445Z,29.40
2023-03-06T16:38:57.962Z,32.30
2023-03-06T16:42:03.021Z,33.25
2023-03-06T16:45:08.992Z,32.20
2023-03-06T16:48:17.210Z,33.47
2023-03-06T16:51:23.367Z,31.90
2023-03-06T16:54:28.558Z,31.42
2023-03-06T16:57:36.273Z,31.67
2023-03-06T17:00:42.570Z,34.35
2023-03-06T17:03:47.722Z,39.05
2023-03-06T17:06:53.480Z,31.73
2023-03-06T17:09:58.699Z,32.42
2023-03-06T17:13:05.435Z,33.92
2023-03-06T17:16:16.475Z,31.98
2023-03-06T17:19:21.947Z,33.55
2023-03-06T17:22:27.862Z,29.88
2023-03-06T17:25:35.178Z,32.17
2023-03-06T17:28:41.565Z,33.83
2023-03-06T17:31:47.117Z,31.33
2023-03-06T17:34:52.853Z,33.85
2023-03-06T17:37:58.437Z,31.80
2023-03-06T17:41:05.378Z,29.83
2023-03-06T17:44:12.456Z,31.67
2023-03-06T17:47:17.818Z,36.60
2023-03-06T17:50:23.305Z,34.55
2023-03-06T17:53:29.006Z,33.85
2023-03-06T17:56:33.949Z,33.72
2023-03-06T17:59:39.431Z,38.30
2023-03-06T18:02:45.629Z,34.72
2023-03-06T18:06:01.984Z,39.95
2023-03-06T18:09:07.994Z,38.28
2023-03-06T18:12:13.342Z,35.60
2023-03-06T18:15:19.236Z,39.78
2023-03-06T18:18:24.823Z,39.72
2023-03-06T18:21:30.108Z,38.80
2023-03-06T18:24:36.846Z,37.03
2023-03-06T18:27:42.437Z,40.22
2023-03-06T18:30:47.431Z,45.75
2023-03-06T18:33:54.197Z,44.42
2023-03-06T18:36:59.646Z,48.95
2023-03-06T18:40:04.843Z,49.45
2023-03-06T18:43:10.178Z,42.85
2023-03-06T18:46:15.542Z,45.45
2023-03-06T18:49:20.838Z,39.20
2023-03-06T18:52:26.077Z,46.75
2023-03-06T18:55:31.134Z,45.85
2023-03-06T18:58:36.783Z,47.00
2023-03-06T19:01:46.613Z,45.35
2023-03-06T19:04:53.149Z,46.60
2023-03-06T19:07:58.640Z,46.65
2023-03-06T19:11:06.252Z,41.45
2023-03-06T19:14:11.644Z,42.50
2023-03-06T19:17:17.054Z,42.70
2023-03-06T19:20:24.261Z,45.03
2023-03-06T19:23:29.676Z,62.70
2023-03-06T19:26:34.979Z,39.13
2023-03-06T19:29:40.366Z,45.53
2023-03-06T19:32:46.411Z,49.33
2023-03-06T19:35:52.132Z,43.75
2023-03-06T19:38:59.817Z,42.30
2023-03-06T19:42:05.610Z,41.30
2023-03-06T19:45:11.093Z,38.95
2023-03-06T19:48:17.934Z,38.63
2023-03-06T19:51:23.954Z,42.72
2023-03-06T19:54:32.159Z,42.58
2023-03-06T19:57:37.892Z,48.00
2023-03-06T20:00:43.362Z,50.72
2023-03-06T20:03:50.746Z,44.67
2023-03-06T20:06:56.622Z,47.78
2023-03-06T20:10:03.153Z,50.15
2023-03-06T20:13:08.815Z,46.97
2023-03-06T20:16:14.543Z,45.17
2023-03-06T20:19:20.574Z,46.25
2023-03-06T20:22:26.581Z,52.97
2023-03-06T20:25:32.087Z,47.28
2023-03-06T20:28:39.240Z,40.25
2023-03-06T20:31:44.722Z,42.33
2023-03-06T20:34:50.312Z,49.78
2023-03-06T20:37:55.870Z,47.85
2023-03-06T20:41:01.562Z,52.47
2023-03-06T20:44:10.065Z,50.55
2023-03-06T20:47:17.307Z,46.72
2023-03-06T20:50:23.422Z,49.78
2023-03-06T20:53:29.587Z,47.35
2023-03-06T20:56:41.812Z,50.13
2023-03-06T20:59:47.200Z,49.30
2023-03-06T21:02:52.782Z,61.85
2023-03-06T21:05:58.340Z,56.78
2023-03-06T21:09:06.304Z,61.10
2023-03-06T21:12:11.633Z,53.50
2023-03-06T21:15:17.258Z,63.10
2023-03-06T21:18:22.953Z,60.17
2023-03-06T21:21:33.070Z,60.03
2023-03-06T21:24:38.476Z,63.83
2023-03-06T21:27:44.214Z,60.25
2023-03-06T21:30:49.948Z,55.70
2023-03-06T21:33:56.555Z,55.35
2023-03-06T21:37:02.235Z,58.45
2023-03-06T21:40:09.081Z,66.55
2023-03-06T21:43:16.008Z,54.90
2023-03-06T21:46:21.325Z,57.35
2023-03-06T21:49:27.038Z,55.78
2023-03-06T21:52:32.502Z,59.80
2023-03-06T21:55:41.210Z,55.17
2023-03-06T21:58:47.366Z,56.67
2023-03-06T22:01:53.415Z,58.95
2023-03-06T22:04:58.967Z,57.78
2023-03-06T22:08:04.570Z,53.38
2023-03-06T22:11:16.567Z,53.00
2023-03-06T22:14:22.421Z,58.08
2023-03-06T22:17:28.262Z,51.80
2023-03-06T22:20:34.078Z,60.80
2023-03-06T22:23:40.958Z,53.17
2023-03-06T22:26:46.997Z,60.55
2023-03-06T22:29:53.682Z,52.28
2023-03-06T22:32:59.782Z,61.03
2023-03-06T22:36:10.204Z,61.90
2023-03-06T22:39:16.055Z,56.55
2023-03-06T22:42:21.570Z,61.70
2023-03-06T22:45:27.209Z,60.08
2023-03-06T22:48:33.024Z,58.83
2023-03-06T22:51:38.976Z,62.70
2023-03-06T22:54:46.196Z,75.97
2023-03-06T22:57:51.152Z,67.18
2023-03-06T23:00:56.729Z,65.03
2023-03-06T23:04:04.575Z,61.35
2023-03-06T23:07:10.025Z,60.28
2023-03-06T23:10:15.619Z,60.95
2023-03-06T23:13:40.617Z,57.60
2023-03-06T23:17:05.181Z,64.10
2023-03-06T23:20:29.963Z,64.50
2023-03-06T23:23:55.208Z,60.28
2023-03-06T23:27:00.397Z,64.20
2023-03-06T23:30:06.839Z,60.17
2023-03-06T23:33:12.598Z,61.42
2023-03-06T23:36:19.234Z,65.25
2023-03-06T23:42:43.946Z,64.45
2023-03-06T23:45:56.039Z,58.72
2023-03-06T23:49:01.578Z,58.10
2023-03-06T23:52:06.912Z,55.08
2023-03-06T23:55:12.493Z,71.63
2023-03-06T23:58:19.120Z,62.35
